• Join FlightAware (Why Join?)
  • Login
  • US Flag 
03:10PM EDT


 

Airport Tracker/Info


-or-


 

Live Flight TrackerFlight Track Log ✈ N317FL ✈ 01-May-2013 ✈ KBHM - KAVP

Flight Track Log - Related Links

Times and Time Zones

All times are in EDT time to prevent confusion due to time zone crossing. See the N317FL flight status page for this flight to view local times or setup timezone preferences in your user account.

Time Position Orientation Groundspeed Altitude Reporting Facility
EDT Latitude Longitude Course Direction KTS MPH feet Rate Location/Type
03:34PM 33.5900 -86.6460 87° East 250 288 6,900  Level FlightAware
03:35PM 33.5930 -86.5630 87° East 271 312 10,300 3,360 Climbing FlightAware
03:37PM 33.7386 -86.3889 95° East  Level Estimated
03:37PM 33.5990 -86.3350 95° East 285 328 18,700  Level FlightAware
03:38PM 33.6000 -86.2550 89° East 313 360 20,400 2,160 Climbing FlightAware
03:39PM 33.6020 -86.1860 88° East 325 374 21,800 1,500 Climbing FlightAware
03:39PM 33.6040 -86.1130 88° East 327 376 22,400 420 Climbing FlightAware
03:40PM 33.6060 -86.0510 88° East 327 376 22,400  Level FlightAware
03:41PM 33.6080 -85.9900 88° East 327 376 22,400  Level FlightAware
03:41PM 33.6100 -85.9130 88° East 327 376 22,400  Level FlightAware
03:42PM 33.6120 -85.8510 88° East 327 376 22,400  Level FlightAware
03:43PM 33.6130 -85.7890 89° East 327 376 22,400 4,260 Level FlightAware
03:44PM 33.6140 -85.5920 90° East 31,200 6,060 Climbing FlightAware
03:44PM 33.6150 -85.5220 89° East 370 426 32,000 1,440 Climbing FlightAware
03:45PM 33.6170 -85.4400 88° East 378 435 33,000 1,440 Climbing FlightAware
03:46PM 33.6180 -85.3470 89° East 385 443 34,100 1,500 Climbing FlightAware
03:47PM 33.6198 -85.2326 89° East 393 452 35,400 1,560 Climbing FlightAware ADS-B
03:47PM 33.6209 -85.1566 89° East 397 457 36,300 1,380 Climbing FlightAware ADS-B
03:48PM 33.6220 -85.0750 89° East 399 459 37,200 1,380 Climbing FlightAware
03:48PM 33.6231 -84.9996 89° East 398 458 38,000 1,560 Climbing FlightAware ADS-B
03:49PM 33.6239 -84.9304 89° East 396 456 38,800 1,500 Climbing FlightAware ADS-B
03:49PM 33.6248 -84.8586 89° East 392 451 39,600 1,380 Climbing FlightAware ADS-B
03:50PM 33.6259 -84.7729 89° East 387 445 40,500 1,020 Climbing FlightAware ADS-B
03:51PM 33.6265 -84.7021 89° East 392 451 40,900 420 Climbing FlightAware ADS-B
03:51PM 33.6271 -84.6346 89° East 405 466 41,000 60 Climbing FlightAware ADS-B
03:52PM 33.6283 -84.5683 89° East 424 488 41,000  Level FlightAware ADS-B
03:52PM 33.6342 -84.5278 80° East 439 505 41,000  Level FlightAware ADS-B
03:52PM 33.6506 -84.4773 69° East 457 526 41,000  Level FlightAware ADS-B
03:52PM 33.6671 -84.4446 59° Northeast 465 535 41,000  Level FlightAware ADS-B
03:53PM 33.7108 -84.3898 46° Northeast 473 544 41,000  Level FlightAware ADS-B
03:53PM 33.7628 -84.3528 31° Northeast 474 545 41,000  Level FlightAware ADS-B
03:54PM 33.8530 -84.2970 27° Northeast 472 543 41,000  Level FlightAware
03:54PM 33.8711 -84.2849 29° Northeast 476 548 41,000  Level FlightAware ADS-B
03:55PM 33.9300 -84.2480 27° Northeast 473 544 41,000  Level FlightAware
03:55PM 33.9635 -84.2265 28° Northeast 480 552 41,000  Level FlightAware ADS-B
03:56PM 34.0220 -84.1900 27° Northeast 475 547 41,000  Level FlightAware
03:56PM 34.0303 -84.1845 29° Northeast 480 552 41,000  Level FlightAware ADS-B
03:56PM 34.1035 -84.1385 27° Northeast 483 556 41,000  Level FlightAware ADS-B
03:57PM 34.1633 -84.1009 27° Northeast 484 557 41,000  Level FlightAware ADS-B
03:57PM 34.2341 -84.0562 28° Northeast 485 558 41,000  Level FlightAware ADS-B
03:58PM 34.2957 -84.0173 28° Northeast 486 559 41,000  Level FlightAware ADS-B
03:59PM 34.3727 -83.9685 28° Northeast 486 559 41,000  Level FlightAware ADS-B
03:59PM 34.4503 -83.9192 28° Northeast 485 558 41,000  Level FlightAware ADS-B
04:00PM 34.5136 -83.8790 28° Northeast 486 559 41,000  Level FlightAware ADS-B
04:00PM 34.5746 -83.8402 28° Northeast 486 559 41,000  Level FlightAware ADS-B
04:01PM 34.6346 -83.8020 28° Northeast 486 559 41,000  Level FlightAware ADS-B
04:01PM 34.6977 -83.7617 28° Northeast 485 558 41,000  Level FlightAware ADS-B
04:02PM 34.7654 -83.7183 28° Northeast 485 558 41,000  Level FlightAware ADS-B
04:02PM 34.8253 -83.6798 28° Northeast 485 558 41,000  Level FlightAware ADS-B
04:03PM 34.9019 -83.6307 28° Northeast 484 557 41,000  Level FlightAware ADS-B
04:04PM 34.9713 -83.5859 28° Northeast 484 557 41,000  Level FlightAware ADS-B
04:04PM 35.0320 -83.5468 28° Northeast 483 556 41,000  Level FlightAware ADS-B
04:05PM 35.0923 -83.5079 28° Northeast 484 557 41,000  Level FlightAware ADS-B
04:05PM 35.1792 -83.4516 28° Northeast 484 557 41,000  Level FlightAware ADS-B
04:06PM 35.2389 -83.4129 28° Northeast 484 557 41,000  Level FlightAware ADS-B
04:06PM 35.3108 -83.3662 28° Northeast 484 557 41,000  Level FlightAware ADS-B
04:07PM 35.3709 -83.3270 28° Northeast 484 557 41,000  Level FlightAware ADS-B
04:07PM 35.4315 -83.2876 28° Northeast 484 557 41,000 180 Level FlightAware ADS-B
04:08PM 35.4967 -83.2450 28° Northeast 481 554 41,200 600 Climbing FlightAware ADS-B
04:08PM 35.5573 -83.2052 28° Northeast 473 544 41,700 960 Climbing FlightAware ADS-B
04:09PM 35.6154 -83.1672 28° Northeast 466 536 42,200 960 Climbing FlightAware ADS-B
04:09PM 35.6723 -83.1299 28° Northeast 459 528 42,700 960 Climbing FlightAware ADS-B
04:10PM 35.7279 -83.0932 28° Northeast 451 519 43,200 960 Climbing FlightAware ADS-B
04:11PM 35.8108 -83.0332 30° Northeast 440 506 44,000 900 Climbing FlightAware ADS-B
04:11PM 35.8589 -82.9872 38° Northeast 432 497 44,400 840 Climbing FlightAware ADS-B
04:12PM 35.9074 -82.9418 37° Northeast 423 487 44,900 420 Climbing FlightAware ADS-B
04:13PM 35.9855 -82.8688 37° Northeast 427 491 45,000 60 Climbing FlightAware ADS-B
04:13PM 36.0361 -82.8210 37° Northeast 434 499 45,000  Level FlightAware ADS-B
04:14PM 36.0851 -82.7747 37° Northeast 436 502 45,000  Level FlightAware ADS-B
04:14PM 36.1346 -82.7277 37° Northeast 441 507 45,000  Level FlightAware ADS-B
04:15PM 36.1899 -82.6753 37° Northeast 444 511 45,000  Level FlightAware ADS-B
04:15PM 36.2397 -82.6280 37° Northeast 444 511 45,000  Level FlightAware ADS-B
04:16PM 36.2902 -82.5799 38° Northeast 442 509 45,000  Level FlightAware ADS-B
04:16PM 36.3509 -82.5219 38° Northeast 441 507 45,000  Level FlightAware ADS-B
04:17PM 36.4032 -82.4719 38° Northeast 440 506 45,000  Level FlightAware ADS-B
04:17PM 36.4523 -82.4249 38° Northeast 440 506 45,000  Level FlightAware ADS-B
04:18PM 36.5024 -82.3768 38° Northeast 438 504 45,000  Level FlightAware ADS-B
04:19PM 36.5545 -82.3269 38° Northeast 436 502 45,000  Level FlightAware ADS-B
04:19PM 36.6025 -82.2807 38° Northeast 435 501 45,000  Level FlightAware ADS-B
04:20PM 36.6509 -82.2341 38° Northeast 434 499 45,000  Level FlightAware ADS-B
04:20PM 36.7087 -82.1783 38° Northeast 433 498 45,000  Level FlightAware ADS-B
04:21PM 36.7599 -82.1288 38° Northeast 432 497 45,000  Level FlightAware ADS-B
04:21PM 36.8093 -82.0810 38° Northeast 431 496 45,000  Level FlightAware ADS-B
04:22PM 36.8836 -82.0088 38° Northeast 429 494 45,000  Level FlightAware ADS-B
04:23PM 36.9771 -81.9178 38° Northeast 429 494 45,000  Level FlightAware ADS-B
04:24PM 37.0329 -81.8633 38° Northeast 427 491 45,000  Level FlightAware ADS-B
04:27PM 37.3600 -81.5410 38° Northeast 420 483 45,000  Level FlightAware
04:28PM 37.4200 -81.4830 38° Northeast 420 483 45,000  Level FlightAware
04:28PM 37.4321 -81.4705 39° Northeast 421 484 45,000  Level FlightAware ADS-B
04:28PM 37.4819 -81.4211 38° Northeast 420 483 45,000  Level FlightAware ADS-B
04:29PM 37.5470 -81.3560 38° Northeast 419 482 45,000  Level FlightAware
04:30PM 37.6100 -81.2940 38° Northeast 419 482 45,000  Level FlightAware
04:31PM 37.6790 -81.2250 38° Northeast 419 482 45,000  Level FlightAware
04:31PM 37.7400 -81.1640 38° Northeast 419 482 45,000  Level FlightAware
04:32PM 37.7920 -81.0910 48° Northeast 428 493 45,000  Level FlightAware
04:33PM 37.8310 -80.9910 64° Northeast 430 495 45,000  Level FlightAware
04:33PM 37.8650 -80.9030 64° Northeast 430 495 45,000  Level FlightAware
04:34PM 37.9050 -80.7980 64° Northeast 431 496 45,000  Level FlightAware
04:35PM 37.9400 -80.7070 64° Northeast 431 496 45,000  Level FlightAware
04:35PM 37.9750 -80.6140 64° Northeast 431 496 45,000 -180 Level FlightAware
04:36PM 38.0130 -80.5140 64° Northeast 434 499 44,800 -600 Descending FlightAware
04:37PM 38.0460 -80.4270 64° Northeast 440 506 44,200 -960 Descending FlightAware
04:38PM 38.0870 -80.3140 65° Northeast 448 516 43,500 -960 Descending FlightAware
04:38PM 38.1100 -80.2110 74° East 455 524 42,900 -1,020 Descending FlightAware
04:39PM 38.1330 -80.1120 74° East 468 539 42,200 -1,140 Descending FlightAware
04:40PM 38.1620 -79.9900 73° East 465 535 41,300 -1,140 Descending FlightAware
04:40PM 38.1870 -79.8850 73° East 455 524 40,600 -1,080 Descending FlightAware
04:41PM 38.2130 -79.7720 74° East 444 511 39,800 -1,140 Descending FlightAware
04:42PM 38.2360 -79.6750 73° East 434 499 39,000 -1,140 Descending FlightAware
04:42PM 38.2600 -79.5800 72° East 428 493 38,300 -1,140 Descending FlightAware
04:43PM 38.2870 -79.4690 73° East 423 487 37,400 -1,560 Descending FlightAware
04:44PM 38.3120 -79.3730 72° East 428 493 36,100 -1,920 Descending FlightAware
04:45PM 38.3380 -79.2760 71° East 428 493 34,700 -1,080 Descending FlightAware
04:45PM 38.3590 -79.1970 71° East 428 493 34,700 -1,800 Level FlightAware
04:49PM 38.6070 -78.6470 60° Northeast 418 481 26,100 -1,860 Descending FlightAware
04:50PM 38.6530 -78.5660 54° Northeast 404 465 25,400 -780 Descending FlightAware
04:51PM 38.6970 -78.4860 55° Northeast 391 450 25,000 -300 Descending FlightAware
04:52PM 38.7400 -78.4100 54° Northeast 381 438 25,000  Level FlightAware
04:52PM 38.7870 -78.3260 54° Northeast 373 429 25,000 -240 Level FlightAware
04:53PM 38.8270 -78.2550 54° Northeast 369 425 24,700 -1,080 Descending FlightAware
04:54PM 38.8820 -78.1880 43° Northeast 364 419 23,500 -1,560 Descending FlightAware
04:54PM 38.9430 -78.1530 24° Northeast 361 415 22,500 -1,500 Descending FlightAware
04:55PM 39.0100 -78.1110 26° Northeast 357 411 21,400 -1,080 Descending FlightAware
04:56PM 39.0710 -78.0740 25° Northeast 356 410 21,000 -300 Descending FlightAware
04:56PM 39.1300 -78.0390 25° Northeast 355 409 21,000  Level FlightAware
04:57PM 39.1980 -77.9970 26° Northeast 352 405 21,000  Level FlightAware
04:58PM 39.2560 -77.9620 25° Northeast 352 405 21,000  Level FlightAware
04:59PM 39.3220 -77.9210 26° Northeast 351 404 21,000  Level FlightAware
04:59PM 39.3810 -77.8850 25° Northeast 350 403 21,000  Level FlightAware
05:00PM 39.4520 -77.8420 25° Northeast 348 400 21,000 -300 Level FlightAware
05:01PM 39.5240 -77.7970 26° Northeast 354 407 20,500 -840 Descending FlightAware
05:02PM 39.5810 -77.7620 25° Northeast 345 397 19,800 -1,080 Descending FlightAware
05:02PM 39.6450 -77.7270 23° Northeast 337 388 19,100 -600 Descending FlightAware
05:03PM 39.7100 -77.7040 15° North 321 369 19,000 -60 Descending FlightAware
05:04PM 39.7890 -77.6760 15° North 325 374 19,000  Level FlightAware
05:05PM 39.8270 -77.6280 44° Northeast 310 357 19,000  Level FlightAware
05:05PM 39.8880 -77.5810 31° Northeast 309 356 19,000  Level FlightAware
05:06PM 39.9340 -77.5450 31° Northeast 312 359 19,000 -240 Level FlightAware
05:07PM 39.9810 -77.4900 42° Northeast 333 383 18,700 -720 Descending FlightAware
05:07PM 40.0310 -77.4240 45° Northeast 356 410 18,000 -1,020 Descending FlightAware
05:08PM 40.0790 -77.3630 44° Northeast 365 420 17,300 -1,020 Descending FlightAware
05:09PM 40.1260 -77.3010 45° Northeast 365 420 16,700 -540 Descending FlightAware
05:10PM 40.1780 -77.2330 45° Northeast 331 381 16,600 -120 Descending FlightAware
05:10PM 40.2230 -77.1750 45° Northeast 323 372 16,600  Level FlightAware
05:11PM 40.2600 -77.1290 43° Northeast 323 372 16,600  Level FlightAware
05:12PM 40.2960 -77.0820 45° Northeast 323 372 16,600  Level FlightAware
05:12PM 40.3490 -77.0100 46° Northeast 304 350 16,600  Level FlightAware
05:13PM 40.4020 -76.9430 44° Northeast 302 348 16,600  Level FlightAware
05:14PM 40.4360 -76.9000 44° Northeast 302 348 16,600  Level FlightAware
05:15PM 40.4700 -76.8560 45° Northeast 302 348 16,600  Level FlightAware
05:15PM 40.5040 -76.8130 44° Northeast 302 348 16,600  Level FlightAware
05:16PM 40.5380 -76.7700 44° Northeast 302 348 16,600  Level FlightAware
05:17PM 40.5720 -76.7260 45° Northeast 302 348 16,600 -2,460 Level FlightAware
05:17PM 40.6611 -76.6092 45° Northeast 315 362 13,100 -2,700 Descending New York Center
05:18PM 40.7256 -76.5244 45° Northeast 326 375 11,800 -1,380 Descending New York Center
05:19PM 40.7856 -76.4500 43° Northeast 326 375 10,400 -1,380 Descending New York Center
05:20PM 40.8456 -76.3697 45° Northeast 317 365 9,100 -720 Descending New York Center
05:21PM 40.9056 -76.2925 44° Northeast 285 328 9,000 -540 Descending New York Center
05:22PM 40.9608 -76.2228 44° Northeast 280 322 8,100 -1,200 Descending New York Center
05:23PM 41.0197 -76.1669 36° Northeast 275 316 6,700 -1,140 Descending New York Center
05:24PM 41.0928 -76.1175 27° Northeast 270 311 5,900 -900 Descending New York Center
05:25PM 41.1517 -76.0589 37° Northeast 264 304 5,000 -480 Descending New York Center
05:26PM 41.2122 -76.0056 34° Northeast 264 304 5,000 -120 Level New York Center
05:27PM 41.2711 -75.9467 37° Northeast 264 304 4,800 -480 Descending New York Center
05:28PM 41.3161 -75.8728 51° Northeast 255 293 4,100 -960 Descending New York Center
05:29PM 41.3419 -75.8003 65° Northeast 233 268 2,900 -840 Descending New York Center
05:30PM 41.3736 -75.7417 54° Northeast 212 244 2,500 -600 Descending New York Center
05:31PM 41.3794 -75.7033 79° East 123 142 1,800 -600 Descending New York Center
05:32PM 41.3633 -75.6886 146° Southeast 81 93 1,400 3,600 Descending New York Center
05:33PM 41.3603 -75.6606 98° East 81 93 9,000 7,680 Climbing New York Center
05:35PM 41.3333 -75.7167 201° Southwest  Level FlightAware Approximate